• Join FlightAware (Why Join?)
  • Login
  • US Flag 
09:44PM EDT


 

Airport Tracker/Info


-or-


 

Live Flight TrackerFlight Track Log ✈ ASQ4692 ✈ 25-Apr-2013 ✈ KIND - KIAH

Flight Track Log - Related Links

Times and Time Zones

All times are in EDT time to prevent confusion due to time zone crossing. See the ASQ4692 flight status page for this flight to view local times or setup timezone preferences in your user account.

Time Position Orientation Groundspeed Altitude Reporting Facility
EDT Latitude Longitude Course Direction KTS MPH feet Rate Location/Type
11:54AM 39.7000 -86.3000 207° Southwest 153 176 1,500  Level Indianapolis TRACON
11:54AM 39.6667 -86.3167 201° Southwest 168 193 2,500 1,620 Climbing Indianapolis TRACON
11:55AM 39.6231 -86.3503 211° Southwest 192 221 4,200 1,980 Climbing Indianapolis Center
11:56AM 39.5606 -86.3853 203° Southwest 234 269 6,700 2,220 Climbing Indianapolis Center
11:57AM 39.3541 -86.4810 204° Southwest  Level FlightAware Approximate
11:57AM 39.4989 -86.4194 203° Southwest 239 275 8,800  Level Indianapolis Center
11:58AM 39.2619 -86.5275 201° Southwest  Level FlightAware Approximate
11:58AM 39.4328 -86.4553 203° Southwest 252 290 10,700  Level Indianapolis Center
11:59AM 39.1702 -86.5754 207° Southwest  Level FlightAware Approximate
11:59AM 39.3442 -86.5033 203° Southwest 293 337 11,400  Level Indianapolis Center
12:00PM 39.2581 -86.5503 203° Southwest 326 375 12,600 1,200 Climbing Indianapolis Center
12:01PM 39.1711 -86.5981 203° Southwest 335 386 14,000 1,200 Climbing Indianapolis Center
12:02PM 39.0861 -86.6464 204° Southwest 342 394 15,100 1,080 Climbing Indianapolis Center
12:04PM 38.9975 -86.6997 205° Southwest 348 400 16,300 1,080 Climbing Indianapolis Center
12:05PM 38.9083 -86.7533 205° Southwest 351 404 17,400 720 Climbing Indianapolis Center
12:06PM 38.8161 -86.8083 205° Southwest 360 414 17,900 780 Climbing Indianapolis Center
12:07PM 38.7031 -86.8753 205° Southwest 370 426 19,100 960 Climbing Indianapolis Center
12:08PM 38.6081 -86.9314 205° Southwest 374 430 19,900 780 Climbing Indianapolis Center
12:09PM 38.5117 -86.9933 207° Southwest 385 443 20,800 780 Climbing Indianapolis Center
12:10PM 38.4403 -87.0861 226° Southwest 369 425 21,600 960 Climbing Indianapolis Center
12:11PM 38.3697 -87.1778 226° Southwest 370 426 22,800 1,440 Climbing Indianapolis Center
12:12PM 38.2889 -87.2861 226° Southwest 356 410 24,600 1,380 Climbing Indianapolis Center
12:13PM 38.2222 -87.3750 226° Southwest 348 400 25,700 960 Climbing Indianapolis Center
12:14PM 38.1561 -87.4628 226° Southwest 346 398 26,600 840 Climbing Indianapolis Center
12:15PM 38.0894 -87.5494 226° Southwest 342 394 27,500 900 Climbing Indianapolis Center
12:16PM 38.0236 -87.6367 226° Southwest 341 392 28,500 960 Climbing Indianapolis Center
12:17PM 37.9581 -87.7228 226° Southwest 338 389 29,500 960 Climbing Indianapolis Center
12:18PM 37.8950 -87.8100 228° Southwest 336 387 30,500 960 Climbing Indianapolis Center
12:19PM 37.8331 -87.8986 229° Southwest 334 384 31,500 1,020 Climbing Indianapolis Center
12:20PM 37.7589 -88.0056 229° Southwest 335 386 32,700 1,020 Climbing Indianapolis Center
12:21PM 37.6969 -88.0956 229° Southwest 336 387 33,700 600 Climbing Indianapolis Center
12:22PM 37.6397 -88.1772 229° Southwest 337 388 34,000 180 Climbing Indianapolis Center
12:23PM 37.5953 -88.2500 232° Southwest 342 394 34,000  Level Memphis Center
12:23PM 37.5692 -88.2808 223° Southwest 358 412 34,000  Level Indianapolis Center
12:24PM 37.4994 -88.3808 229° Southwest 377 434 34,000  Level Indianapolis Center
12:25PM 37.4589 -88.4497 233° Southwest 371 427 34,000  Level Memphis Center
12:26PM 37.3853 -88.5481 227° Southwest 377 434 34,000 240 Level Memphis Center
12:27PM 37.3181 -88.6461 229° Southwest 376 433 34,500  Climbing Memphis Center
12:28PM 37.2483 -88.7414 227° Southwest 381 438 34,000 -300 Descending Memphis Center
12:29PM 37.1831 -88.8389 230° Southwest 381 438 34,000  Level Memphis Center
12:30PM 37.1133 -88.9314 227° Southwest 376 433 34,100 540 Climbing Memphis Center
12:31PM 37.0456 -89.0261 228° Southwest 369 425 35,100 900 Climbing Memphis Center
12:32PM 36.9819 -89.1156 228° Southwest 369 425 36,000 420 Climbing Memphis Center
12:33PM 36.9161 -89.2075 228° Southwest 369 425 36,000  Level Memphis Center
12:34PM 36.8481 -89.3017 228° Southwest 369 425 36,000  Level Memphis Center
12:35PM 36.7803 -89.3983 229° Southwest 369 425 36,000  Level Memphis Center
12:36PM 36.7122 -89.4950 229° Southwest 369 425 36,000  Level Memphis Center
12:37PM 36.6439 -89.5864 227° Southwest 369 425 36,000  Level Memphis Center
12:38PM 36.5758 -89.6800 228° Southwest 369 425 36,000  Level Memphis Center
12:39PM 36.5075 -89.7708 227° Southwest 369 425 36,000  Level Memphis Center
12:40PM 36.4369 -89.8669 228° Southwest 369 425 36,000  Level Memphis Center
12:41PM 36.3664 -89.9600 227° Southwest 369 425 36,000  Level Memphis Center
12:42PM 36.2958 -90.0558 228° Southwest 369 425 36,000  Level Memphis Center
12:43PM 36.2253 -90.1536 228° Southwest 374 430 36,000  Level Memphis Center
12:44PM 36.1522 -90.2464 226° Southwest 374 430 36,000  Level Memphis Center
12:45PM 36.0856 -90.3392 228° Southwest 369 425 36,000  Level Memphis Center
12:46PM 36.0169 -90.4314 227° Southwest 369 425 36,000  Level Memphis Center
12:47PM 35.9481 -90.5236 227° Southwest 369 425 36,000  Level Memphis Center
12:48PM 35.8789 -90.6131 226° Southwest 369 425 36,000  Level Memphis Center
12:49PM 35.8058 -90.7078 226° Southwest 369 425 36,000  Level Memphis Center
12:50PM 35.7408 -90.7994 229° Southwest 369 425 36,000  Level Memphis Center
12:51PM 35.6736 -90.8911 228° Southwest 369 425 36,000  Level Memphis Center
12:52PM 35.6044 -90.9853 228° Southwest 369 425 36,000  Level Memphis Center
12:53PM 35.5331 -91.0792 227° Southwest 375 432 36,000  Level Memphis Center
12:54PM 35.4636 -91.1728 228° Southwest 380 437 36,000  Level Memphis Center
12:55PM 35.3922 -91.2636 226° Southwest 374 430 36,000  Level Memphis Center
12:56PM 35.3206 -91.3547 226° Southwest 369 425 36,000  Level Memphis Center
12:57PM 35.2508 -91.4478 227° Southwest 369 425 36,000  Level Memphis Center
12:58PM 35.1750 -91.5333 223° Southwest 375 432 36,000  Level Memphis Center
12:59PM 35.0661 -91.5722 196° South 386 444 36,000  Level Memphis Center
01:00PM 34.9447 -91.6061 193° South 423 487 36,000  Level Memphis Center
01:01PM 34.8297 -91.6422 194° South 429 494 36,000  Level Memphis Center
01:02PM 34.7167 -91.6733 193° South 429 494 36,000  Level Memphis Center
01:03PM 34.6142 -91.7097 196° South 424 488 36,000  Level Memphis Center
01:04PM 34.5133 -91.7711 207° Southwest 414 476 36,000  Level Memphis Center
01:05PM 34.4167 -91.8300 207° Southwest 402 463 36,000  Level Memphis Center
01:06PM 34.3072 -91.8961 207° Southwest 402 463 36,000  Level Memphis Center
01:07PM 34.2064 -91.9569 207° Southwest 402 463 36,000  Level Memphis Center
01:08PM 34.1056 -92.0153 206° Southwest 402 463 36,000  Level Memphis Center
01:09PM 34.0044 -92.0736 206° Southwest 408 470 36,000  Level Memphis Center
01:10PM 33.8589 -92.1586 206° Southwest 389 448 36,000  Level Fort Worth Center
01:11PM 33.7547 -92.2150 204° Southwest 396 456 36,000  Level Fort Worth Center
01:12PM 33.6508 -92.2733 205° Southwest 408 470 36,000  Level Fort Worth Center
01:13PM 33.5553 -92.3364 209° Southwest 414 476 36,000  Level Fort Worth Center
01:14PM 33.4428 -92.3925 203° Southwest 414 476 36,000  Level Fort Worth Center
01:15PM 33.3356 -92.4286 196° South 414 476 36,000  Level Fort Worth Center
01:16PM 33.2178 -92.4525 190° South 421 484 36,000  Level Fort Worth Center
01:17PM 33.1017 -92.4739 189° South 428 493 36,000  Level Fort Worth Center
01:18PM 32.9814 -92.4931 188° South 428 493 36,000  Level Fort Worth Center
01:20PM 32.7361 -92.5394 189° South 430 495 36,000  Level Houston Center
01:21PM 32.6167 -92.5611 189° South 433 498 36,000  Level Houston Center
01:22PM 32.4953 -92.5819 188° South 442 509 36,000  Level Houston Center
01:23PM 32.3506 -92.6067 188° South 440 506 36,000  Level Houston Center
01:24PM 32.2281 -92.6289 189° South 442 509 36,000  Level Houston Center
01:25PM 32.1081 -92.6508 189° South 439 505 36,000  Level Houston Center
01:27PM 31.9881 -92.6742 189° South 437 503 36,000  Level Houston Center
01:28PM 31.8989 -92.7486 215° Southwest 399 459 36,000  Level Houston Center
01:29PM 31.8136 -92.8289 219° Southwest 393 452 36,000  Level Houston Center
01:30PM 31.7142 -92.9289 221° Southwest 392 451 36,000  Level Houston Center
01:31PM 31.6292 -93.0106 219° Southwest 395 455 36,000  Level Houston Center
01:32PM 31.5447 -93.0914 219° Southwest 392 451 36,000  Level Houston Center
01:33PM 31.4578 -93.1731 219° Southwest 398 458 36,000  Level Houston Center
01:34PM 31.3725 -93.2547 219° Southwest 399 459 36,000 -120 Level Houston Center
01:35PM 31.2722 -93.3522 220° Southwest 401 461 35,800 -600 Descending Houston Center
01:36PM 31.1842 -93.4350 219° Southwest 397 457 34,800 -1,080 Descending Houston Center
01:37PM 31.0975 -93.5183 219° Southwest 403 464 33,600 -1,560 Descending Houston Center
01:38PM 31.0114 -93.5997 219° Southwest 402 463 31,600 -2,160 Descending Houston Center
01:39PM 30.9228 -93.6836 219° Southwest 409 471 29,200 -2,580 Descending Houston Center
01:40PM 30.8153 -93.7856 219° Southwest 416 479 26,300 -2,460 Descending Houston Center
01:41PM 30.7233 -93.8725 219° Southwest 427 491 24,200 -2,040 Descending Houston Center
01:42PM 30.6311 -93.9583 219° Southwest 428 493 22,200 -2,040 Descending Houston Center
01:43PM 30.5417 -94.0422 219° Southwest 422 486 20,100 -2,040 Descending Houston Center
01:44PM 30.4533 -94.1256 219° Southwest 415 478 18,000 -2,460 Descending Houston Center
01:45PM 30.3486 -94.2219 218° Southwest 407 468 15,100 -2,760 Descending Houston Center
01:46PM 30.2964 -94.2717 219° Southwest 382 440 13,500 -2,400 Descending Houston Center
01:46PM 30.2683 -94.2964 217° Southwest 385 443 12,600 -1,380 Descending Houston Center
01:47PM 30.2136 -94.3481 219° Southwest 321 369 12,000 -720 Descending Houston Center
01:47PM 30.2017 -94.3667 233° Southwest 339 390 11,900 -900 Descending Houston Center
01:48PM 30.1861 -94.4339 255° West 318 366 11,200 -1,020 Descending Houston Center
01:48PM 30.1797 -94.4653 257° West 322 371 10,900 -1,020 Descending Houston Center
01:49PM 30.1656 -94.5453 258° West 318 366 10,100 -900 Descending Houston Center
01:49PM 30.1622 -94.5739 262° West 318 366 10,000 -120 Descending Houston Center
01:50PM 30.1492 -94.6369 257° West 320 368 10,000  Level Houston Center
01:50PM 30.1453 -94.6728 263° West 318 366 10,000  Level Houston Center
01:51PM 30.1319 -94.7406 257° West 317 365 10,000  Level Houston Center
01:51PM 30.1278 -94.7725 261° West 318 366 10,000 60 Level Houston Center
01:52PM 30.1142 -94.8394 257° West 316 364 10,100  Climbing Houston Center
01:52PM 30.1078 -94.8914 262° West 317 365 10,000 -120 Descending Houston Center
01:53PM 30.1047 -94.9397 266° West 305 351 10,000 -720 Level Houston Center
01:53PM 30.1064 -94.9850 272° West 291 335 9,300 -1,680 Descending Houston Center
01:54PM 30.1050 -95.0317 268° West 271 312 8,300 -2,040 Descending Houston Center
01:54PM 30.1064 -95.0719 272° West 276 318 7,200 -1,980 Descending Houston Center
01:55PM 30.1061 -95.1111 270° West 277 319 6,500 -1,080 Descending Houston Center
01:56PM 30.1064 -95.1575 270° West 271 312 6,100 -480 Descending Houston Center
01:56PM 30.1064 -95.2028 270° West 236 272 6,000 -120 Descending Houston Center
01:57PM 30.1072 -95.2347 272° West 247 284 6,000 60 Level Houston Center
01:57PM 30.1056 -95.2875 268° West 239 275 6,100  Climbing Houston Center
01:58PM 30.1072 -95.3247 273° West 237 273 6,000 -600 Descending Houston Center
01:58PM 30.1061 -95.3622 268° West 236 272 5,500 -1,260 Descending Houston Center
01:59PM 30.1075 -95.3994 272° West 235 270 4,700 -1,680 Descending Houston Center
01:59PM 30.1064 -95.4322 268° West 243 280 4,000 -1,380 Descending Houston Center
02:00PM 30.1058 -95.4756 269° West 237 273 3,300 -1,080 Descending Houston Center